Unicom:                    122.8

AWOS:                  118.275

Elevation           1458’ MSL

TPA:                   2500’ MSL

06/24:         5003’ L   75’ W

PAPI:       06/Left     24/Left

(Operate lights on unicom freq.)

Traffic Pattern: Left

Beacon: Sunset to Sunrise

Windsock: yes, lighted

Segmented Circle: No

 

Cleveland Center: 126.72/291.65

FSS: Altoona

[Source: ADDS]
METAR
KFKL 230356Z AUTO 26005KT 10SM CLR 10/07 A3009 RMK AO2 SLP191 T01000072 =
KFKL 222320Z 2300/2324 27003KT P6SM SCT120 FM230700 25004KT P6SM SKC FM231200 25004KT P6SM SKC FM231700 28007KT P6SM SCT025
TAF
KFKL 222320Z 2300/2324 27003KT P6SM SCT120 FM230700 25004KT P6SM SKC FM231200 25004KT P6SM SKC FM231700 28007KT P6SM SCT025 =
[Source: ADDS]
METAR
KDUJ 230353Z AUTO 26004KT 10SM CLR 11/06 A3008 RMK AO2 SLP184 T01110061 =
KDUJ 222320Z 2300/2324 29005KT P6SM SCT120 FM230700 26004KT P6SM SKC FM231700 28009KT P6SM SKC
TAF
KDUJ 222320Z 2300/2324 29005KT P6SM SCT120 FM230700 26004KT P6SM SKC FM231700 28009KT P6SM SKC =

Airport Information. 

Runway Length: 5003ft x 75ft

Runways 6/24

Traffic Pattern: Left

PAPI’s: 2 light PAPI on left of both 6/24

TPA: 2500 msl

Field Elevation: 1458 msl

Surface: Asphalt

Beacon: Operates Sunset-Sunrise

Pilot Controlled Lighting:  yes 122.8

 

Fuel:

Jet-A w/prist

100 LL

Center point fueling available upon request.

 

Unicom Frequency: 122.8

AWOS Frequency: 118.27  (814-227-2899)

 

Cleveland Center: 126.72 (440-774-0442)

 

GPS Approach Plates for 6/24 download here: http://www.airnav.com/airport/KAXQ

[Source: ADDS]
METAR
KFKL 230356Z AUTO 26005KT 10SM CLR 10/07 A3009 RMK AO2 SLP191 T01000072 =
KFKL 222320Z 2300/2324 27003KT P6SM SCT120 FM230700 25004KT P6SM SKC FM231200 25004KT P6SM SKC FM231700 28007KT P6SM SCT025
TAF
KFKL 222320Z 2300/2324 27003KT P6SM SCT120 FM230700 25004KT P6SM SKC FM231200 25004KT P6SM SKC FM231700 28007KT P6SM SCT025 =
[Source: ADDS]
METAR
KDUJ 230353Z AUTO 26004KT 10SM CLR 11/06 A3008 RMK AO2 SLP184 T01110061 =
KDUJ 222320Z 2300/2324 29005KT P6SM SCT120 FM230700 26004KT P6SM SKC FM231700 28009KT P6SM SKC
TAF
KDUJ 222320Z 2300/2324 29005KT P6SM SCT120 FM230700 26004KT P6SM SKC FM231700 28009KT P6SM SKC =